Time;durP1;ratioP1;P1;durP2;ratioP2;P2;SDS_P1;SDS_P2;PMS_P1;PMS_P2;Temp;Humidity;BMP_temperature;BMP_pressure;BME280_temperature;BME280_humidity;BME280_pressure;Samples;Min_cycle;Max_cycle;Signal;HPM_P1;HPM_P2
2021/04/06 00:01:57;;;;;;;1.20;0.80;;;;;;;-2.50;87.96;99843.09;4974878;28;20469;-81
2021/04/06 00:04:25;;;;;;;1.03;0.93;;;;;;;-2.53;88.71;99854.13;4973376;28;20495;-81
2021/04/06 00:06:56;;;;;;;3.90;1.10;;;;;;;-2.53;88.70;99850.72;4964941;28;20509;-81
2021/04/06 00:09:28;;;;;;;3.53;0.80;;;;;;;-2.59;88.99;99846.38;4963652;28;20486;-81
2021/04/06 00:11:57;;;;;;;2.57;1.00;;;;;;;-2.64;88.63;99853.09;4985105;28;20463;-81
2021/04/06 00:14:25;;;;;;;2.13;0.77;;;;;;;-2.64;88.79;99854.81;4979478;28;20495;-81
2021/04/06 00:16:53;;;;;;;2.40;0.97;;;;;;;-2.63;89.15;99862.47;4979437;28;20490;-80
2021/04/06 00:19:23;;;;;;;4.50;1.00;;;;;;;-2.63;89.19;99857.38;4975713;28;20468;-81
2021/04/06 00:21:53;;;;;;;2.43;1.10;;;;;;;-2.65;89.02;99848.00;4979880;28;20529;-80
2021/04/06 00:24:23;;;;;;;5.10;1.33;;;;;;;-2.71;89.56;99854.72;4980769;28;20482;-81
2021/04/06 00:26:51;;;;;;;2.00;1.20;;;;;;;-2.72;89.28;99858.09;4964025;28;20445;-81
2021/04/06 00:29:19;;;;;;;0.67;0.67;;;;;;;-2.73;89.51;99853.81;4984883;28;20477;-80
2021/04/06 00:31:47;;;;;;;1.20;0.70;;;;;;;-2.69;89.46;99860.72;4978947;28;20470;-81
2021/04/06 00:34:16;;;;;;;2.33;0.90;;;;;;;-2.72;89.16;99868.31;4953524;28;20474;-80
2021/04/06 00:36:44;;;;;;;2.50;1.00;;;;;;;-2.77;89.70;99859.72;4978083;28;20465;-81
2021/04/06 00:39:12;;;;;;;7.20;1.10;;;;;;;-2.75;89.65;99870.81;4978335;28;20885;-81
2021/04/06 00:41:40;;;;;;;1.80;0.83;;;;;;;-2.75;89.59;99868.25;4981893;28;20540;-81
2021/04/06 00:44:13;;;;;;;4.53;1.00;;;;;;;-2.76;90.02;99870.78;4981273;28;20576;-81
2021/04/06 00:46:44;;;;;;;1.20;0.87;;;;;;;-2.77;nan;99867.38;4981793;28;20462;-81
2021/04/06 00:49:12;;;;;;;2.60;1.17;;;;;;;-2.79;89.86;99873.31;4979086;28;20553;-80
2021/04/06 00:51:40;;;;;;;2.00;0.90;;;;;;;-2.82;90.09;99868.13;4975323;28;20481;-81
2021/04/06 00:54:12;;;;;;;1.70;1.00;;;;;;;-2.82;90.00;99876.66;4980002;28;20762;-81
2021/04/06 00:56:40;;;;;;;2.57;1.00;;;;;;;-2.83;90.07;99874.94;4986265;28;20457;-80
2021/04/06 00:59:08;;;;;;;2.87;1.33;;;;;;;-2.77;90.05;99879.28;4982344;28;20472;-80
2021/04/06 01:01:36;;;;;;;1.97;0.80;;;;;;;-2.77;89.95;99880.13;4985067;28;20487;-80
2021/04/06 01:04:05;;;;;;;3.33;0.87;;;;;;;-2.76;89.79;99873.31;4971346;28;20481;-80
2021/04/06 01:06:33;;;;;;;1.53;0.87;;;;;;;-2.73;89.35;99881.88;4968321;28;20516;-80
2021/04/06 01:09:00;;;;;;;3.00;1.07;;;;;;;-2.75;89.43;99883.56;4978999;28;20472;-81
2021/04/06 01:11:26;;;;;;;2.20;0.97;;;;;;;-2.74;89.52;99876.78;4969266;28;20897;-80
2021/04/06 01:14:01;;;;;;;1.60;0.83;;;;;;;-2.77;89.53;99885.22;4972355;28;20510;-81
2021/04/06 01:16:28;;;;;;;2.60;0.80;;;;;;;-2.80;89.70;99881.78;4985992;28;20468;-80
2021/04/06 01:18:54;;;;;;;0.77;0.77;;;;;;;-2.79;89.58;99883.50;4984105;28;20467;-80
2021/04/06 01:21:21;;;;;;;0.80;0.70;;;;;;;-2.78;89.81;99883.53;4984218;28;20582;-81
2021/04/06 01:23:48;;;;;;;1.27;0.90;;;;;;;-2.74;89.69;99889.53;4985043;28;20508;-80
2021/04/06 01:26:14;;;;;;;2.20;1.00;;;;;;;-2.76;89.80;99899.72;4985975;28;21025;-80
2021/04/06 01:28:41;;;;;;;1.97;1.07;;;;;;;-2.79;89.99;99889.47;4982517;28;20508;-80
2021/04/06 01:31:08;;;;;;;1.63;0.83;;;;;;;-2.79;89.96;99898.81;4963851;28;21938;-80
2021/04/06 01:33:34;;;;;;;1.77;0.80;;;;;;;-2.74;89.68;99895.50;4966057;28;20464;-81
2021/04/06 01:36:04;;;;;;;2.33;0.93;;;;;;;-2.69;89.03;99898.97;4981527;28;20441;-79
2021/04/06 01:38:30;;;;;;;1.47;0.90;;;;;;;-2.70;88.94;99899.81;4984911;28;20483;-80
2021/04/06 01:40:59;;;;;;;1.43;0.80;;;;;;;-2.71;89.15;99895.56;4989622;28;20740;-80
2021/04/06 01:43:29;;;;;;;2.77;1.00;;;;;;;-2.73;88.90;99897.19;4985166;28;20469;-81
2021/04/06 01:46:00;;;;;;;2.97;1.10;;;;;;;-2.77;89.64;99895.44;4980412;28;20470;-80
2021/04/06 01:48:28;;;;;;;1.53;0.90;;;;;;;-2.78;89.38;99901.41;4970062;28;20606;-80
2021/04/06 01:50:56;;;;;;;1.00;0.90;;;;;;;-2.76;89.62;99898.84;4986736;28;20450;-80
2021/04/06 01:53:24;;;;;;;4.17;1.07;;;;;;;-2.76;88.95;99899.72;4981759;28;20484;-80
2021/04/06 01:55:54;;;;;;;1.67;1.00;;;;;;;-2.73;88.55;99902.31;4983906;28;20456;-80
2021/04/06 01:58:23;;;;;;;1.80;0.80;;;;;;;-2.65;88.11;99906.69;4985110;28;20466;-80
2021/04/06 02:01:07;;;;;;;2.00;1.23;;;;;;;-2.71;88.43;99899.78;4982783;28;20514;-81
2021/04/06 02:03:37;;;;;;;1.10;0.83;;;;;;;-2.69;88.28;99900.66;4980040;28;20461;-81
2021/04/06 02:06:05;;;;;;;1.63;0.90;;;;;;;-2.70;88.56;99896.41;4977765;28;20495;-81
2021/04/06 02:08:32;;;;;;;4.23;1.30;;;;;;;-2.71;88.71;99898.09;4983966;28;21122;-80
2021/04/06 02:10:58;;;;;;;5.60;1.33;;;;;;;-2.65;88.19;99893.94;4982388;28;20521;-81
2021/04/06 02:13:25;;;;;;;2.77;1.17;;;;;;;-2.65;88.29;99893.94;4984642;28;20478;-81
2021/04/06 02:15:57;;;;;;;2.10;1.10;;;;;;;-2.59;88.24;99888.91;4982876;28;20548;-81
2021/04/06 02:18:24;;;;;;;2.63;0.90;;;;;;;-2.54;87.47;99890.69;4986652;28;20646;-80
2021/04/06 02:20:52;;;;;;;2.97;1.40;;;;;;;-2.53;87.18;99889.88;4980961;28;20486;-80
2021/04/06 02:23:19;;;;;;;4.23;1.40;;;;;;;-2.58;87.40;99893.19;4982589;28;20472;-81
2021/04/06 02:25:49;;;;;;;3.63;1.20;;;;;;;-2.58;87.68;99891.50;4989259;28;20480;-80
2021/04/06 02:28:15;;;;;;;1.30;1.20;;;;;;;-2.60;87.52;99898.28;4985080;28;20546;-81
2021/04/06 02:30:53;;;;;;;2.90;1.10;;;;;;;-2.60;87.49;99897.38;4984301;28;20523;-80
2021/04/06 02:33:23;;;;;;;2.50;1.10;;;;;;;-2.61;87.66;99898.25;4962150;28;20467;-81
2021/04/06 02:35:54;;;;;;;3.57;0.97;;;;;;;-2.59;87.37;99897.41;4968060;28;20884;-81
2021/04/06 02:38:20;;;;;;;2.27;0.90;;;;;;;-2.59;87.83;99899.13;4966543;28;20462;-81
2021/04/06 02:40:46;;;;;;;2.73;1.00;;;;;;;-2.59;87.16;99902.53;4986414;28;20888;-81
2021/04/06 02:43:12;;;;;;;3.83;1.03;;;;;;;-2.59;87.22;99909.34;4983302;28;20458;-81
2021/04/06 02:45:39;;;;;;;1.10;1.00;;;;;;;-2.63;86.74;99905.88;4967089;28;20511;-81
2021/04/06 02:48:12;;;;;;;2.10;1.03;;;;;;;-2.63;86.96;99903.31;4981646;28;20469;-80
2021/04/06 02:50:40;;;;;;;1.90;1.10;;;;;;;-2.68;87.16;99907.50;4979321;28;20866;-81
2021/04/06 02:53:08;;;;;;;2.00;1.33;;;;;;;-2.68;87.36;99904.94;4987385;28;21239;-80
2021/04/06 02:55:36;;;;;;;2.00;1.00;;;;;;;-2.70;87.09;99907.47;4977258;28;21006;-81
2021/04/06 02:58:12;;;;;;;3.63;1.20;;;;;;;-2.73;86.46;99909.97;4967389;28;20852;-81
2021/04/06 03:00:39;;;;;;;2.60;1.10;;;;;;;-2.70;86.83;99914.28;4978649;28;20477;-80
2021/04/06 03:03:19;;;;;;;3.13;1.30;;;;;;;-2.73;87.04;99902.31;4982456;28;20464;-81
2021/04/06 03:05:46;;;;;;;0.77;0.70;;;;;;;-2.73;86.85;99911.66;4990052;28;20489;-81
2021/04/06 03:08:12;;;;;;;1.30;1.00;;;;;;;-2.75;86.88;99916.72;4983755;28;20524;-80
2021/04/06 03:10:38;;;;;;;0.77;0.70;;;;;;;-2.77;87.31;99909.91;4986865;28;20621;-80
2021/04/06 03:13:06;;;;;;;2.63;1.10;;;;;;;-2.77;87.09;99904.78;4983599;28;20486;-81
2021/04/06 03:15:32;;;;;;;1.90;0.93;;;;;;;-2.75;87.16;99913.34;4985001;28;21046;-81
2021/04/06 03:18:04;;;;;;;3.30;0.90;;;;;;;-2.77;86.57;99915.84;4979986;28;20470;-80
2021/04/06 03:20:34;;;;;;;1.73;1.07;;;;;;;-2.79;86.81;99911.56;4984523;28;20489;-81
2021/04/06 03:23:04;;;;;;;3.13;1.10;;;;;;;-2.82;87.22;99906.41;4991240;28;20461;-80
2021/04/06 03:25:32;;;;;;;0.80;0.80;;;;;;;-2.83;87.44;99903.00;4996963;28;20542;-80
2021/04/06 03:28:05;;;;;;;2.93;1.00;;;;;;;-2.88;86.93;99910.56;4998262;28;20460;-80
2021/04/06 03:30:32;;;;;;;1.73;0.90;;;;;;;-2.89;87.32;99911.41;4995764;28;20477;-80
2021/04/06 03:33:00;;;;;;;0.90;0.80;;;;;;;-2.91;87.33;99904.56;5000035;28;20454;-80
2021/04/06 03:35:26;;;;;;;2.03;1.20;;;;;;;-2.94;87.62;99910.47;4999855;28;20524;-80
2021/04/06 03:37:53;;;;;;;1.67;1.10;;;;;;;-2.94;87.24;99907.91;4986558;28;20528;-80
2021/04/06 03:40:20;;;;;;;1.30;0.60;;;;;;;-2.97;87.78;99909.53;4985169;28;20945;-80
2021/04/06 03:42:47;;;;;;;1.87;0.90;;;;;;;-3.00;87.45;99906.97;4981468;28;20514;-80
2021/04/06 03:45:14;;;;;;;1.10;0.90;;;;;;;-3.05;88.23;99911.97;4966182;28;20512;-80
2021/04/06 03:47:53;;;;;;;2.40;0.87;;;;;;;-3.08;88.66;99912.78;4979370;28;20472;-80
2021/04/06 03:50:34;;;;;;;0.80;0.80;;;;;;;-3.06;88.11;99907.69;4985921;28;20450;-80
2021/04/06 03:53:02;;;;;;;4.73;1.13;;;;;;;-3.08;88.33;99912.78;4980880;28;20472;-80
2021/04/06 03:55:28;;;;;;;2.63;1.03;;;;;;;-3.10;88.55;99908.47;4986762;28;20475;-80
2021/04/06 03:58:03;;;;;;;2.03;1.03;;;;;;;-3.14;88.75;99906.72;4982942;28;20492;-80
2021/04/06 04:00:29;;;;;;;4.03;1.10;;;;;;;-3.21;88.75;99908.28;4978475;28;20492;-80
2021/04/06 04:02:57;;;;;;;2.40;0.90;;;;;;;-3.22;89.16;99905.72;4975806;28;20497;-80
2021/04/06 04:05:23;;;;;;;1.53;1.03;;;;;;;-3.27;89.37;99914.16;4979216;28;20229;-80
2021/04/06 04:07:49;;;;;;;2.03;0.80;;;;;;;-3.30;89.21;99906.44;4975617;28;20513;-80
2021/04/06 04:10:16;;;;;;;1.57;0.90;;;;;;;-3.26;89.61;99900.56;4982273;28;20469;-80
2021/04/06 04:12:42;;;;;;;3.23;1.43;;;;;;;-3.32;89.27;99910.66;4978880;28;20805;-81
2021/04/06 04:15:09;;;;;;;1.33;1.17;;;;;;;-3.32;89.99;99900.44;4983611;28;20492;-80
2021/04/06 04:17:36;;;;;;;3.37;1.17;;;;;;;-3.35;90.09;99900.38;4982279;28;20461;-80
2021/04/06 04:20:08;;;;;;;0.80;0.80;;;;;;;-3.37;90.34;99893.56;4984751;28;20513;-80
2021/04/06 04:22:34;;;;;;;1.30;0.87;;;;;;;-3.41;90.33;99892.66;4980799;28;21157;-80
2021/04/06 04:25:00;;;;;;;2.37;0.97;;;;;;;-3.43;89.89;99887.50;4983347;28;20469;-80
2021/04/06 04:27:27;;;;;;;2.20;1.07;;;;;;;-3.43;90.47;99889.19;4980338;28;20923;-80
2021/04/06 04:29:53;;;;;;;2.17;0.90;;;;;;;-3.45;90.43;99889.19;4983233;28;20453;-80
2021/04/06 04:32:19;;;;;;;0.90;0.90;;;;;;;-3.44;90.26;99885.78;4984418;28;20468;-80
2021/04/06 04:34:45;;;;;;;1.07;0.97;;;;;;;-3.44;90.62;99884.94;4980294;28;20859;-80
2021/04/06 04:37:11;;;;;;;2.50;1.10;;;;;;;-3.46;90.74;99884.03;4983554;28;20461;-80
2021/04/06 04:39:37;;;;;;;2.50;1.30;;;;;;;-3.50;90.81;99889.91;4962960;28;20457;-80
2021/04/06 04:42:04;;;;;;;1.27;1.00;;;;;;;-3.47;90.89;99882.31;4980990;28;20210;-80
2021/04/06 04:44:31;;;;;;;1.40;0.80;;;;;;;-3.45;90.59;99883.19;4980597;28;20935;-80
2021/04/06 04:46:57;;;;;;;1.27;0.97;;;;;;;-3.46;90.83;99881.50;4983655;28;20668;-80
2021/04/06 04:49:23;;;;;;;1.33;1.10;;;;;;;-3.47;90.56;99882.31;4965923;28;20496;-80
2021/04/06 04:51:49;;;;;;;1.40;1.10;;;;;;;-3.47;90.77;99875.50;4978352;28;20493;-80
2021/04/06 04:54:15;;;;;;;2.40;1.27;;;;;;;-3.48;90.97;99880.63;4961290;28;20559;-80
2021/04/06 04:56:41;;;;;;;3.60;1.20;;;;;;;-3.48;90.67;99881.47;4979469;28;20492;-80
2021/04/06 04:59:07;;;;;;;1.33;1.13;;;;;;;-3.41;90.56;99887.53;4978393;28;20468;-80
2021/04/06 05:01:34;;;;;;;1.37;0.90;;;;;;;-3.39;90.69;99883.31;4979131;28;20535;-80
2021/04/06 05:04:00;;;;;;;1.30;1.07;;;;;;;-3.36;90.48;99878.28;4977191;28;20535;-80
2021/04/06 05:06:26;;;;;;;0.70;0.70;;;;;;;-3.33;90.62;99880.88;4981127;28;20464;-80
2021/04/06 05:08:52;;;;;;;3.33;1.40;;;;;;;-3.32;90.15;99880.06;4977949;28;20545;-80
2021/04/06 05:11:18;;;;;;;1.90;1.37;;;;;;;-3.28;90.34;99878.41;4984188;28;20456;-80
2021/04/06 05:13:44;;;;;;;1.57;1.37;;;;;;;-3.19;90.06;99883.69;4977536;28;20499;-80
2021/04/06 05:16:10;;;;;;;2.67;1.40;;;;;;;-3.17;90.16;99887.09;4977851;28;20980;-80
2021/04/06 05:18:37;;;;;;;1.80;1.00;;;;;;;-3.12;89.66;99893.16;4979720;28;20468;-80
2021/04/06 05:21:04;;;;;;;1.63;1.20;;;;;;;-3.10;89.69;99890.63;4982270;28;20489;-80
2021/04/06 05:23:30;;;;;;;2.80;1.50;;;;;;;-3.08;90.19;99891.50;4980327;28;20885;-80
2021/04/06 05:25:56;;;;;;;2.20;1.27;;;;;;;-3.03;89.95;99889.06;4985765;28;20465;-79
2021/04/06 05:28:22;;;;;;;1.50;1.40;;;;;;;-3.02;89.72;99899.28;4976362;28;20198;-80
2021/04/06 05:30:48;;;;;;;2.40;1.40;;;;;;;-2.96;89.15;99894.28;4980409;28;20471;-79
2021/04/06 05:33:14;;;;;;;3.73;1.40;;;;;;;-2.91;89.00;99892.66;4974796;28;20468;-80
2021/04/06 05:35:41;;;;;;;2.40;1.50;;;;;;;-2.88;89.33;99891.88;4981030;28;20606;-81
2021/04/06 05:38:07;;;;;;;2.33;1.40;;;;;;;-2.84;89.18;99895.31;4986235;28;20516;-80
2021/04/06 05:40:33;;;;;;;3.50;1.57;;;;;;;-2.81;89.19;99892.81;4970048;28;21012;-80
2021/04/06 05:43:02;;;;;;;3.63;1.80;;;;;;;-2.76;89.27;99889.53;4986268;28;20491;-80
2021/04/06 05:45:31;;;;;;;2.73;1.23;;;;;;;-2.68;88.90;99899.84;4979273;28;20999;-81
2021/04/06 05:48:01;;;;;;;2.43;1.50;;;;;;;-2.64;88.56;99905.84;4981438;28;20444;-81
2021/04/06 05:50:28;;;;;;;2.93;1.40;;;;;;;-2.59;88.48;99901.69;4985790;28;20448;-80
2021/04/06 05:52:55;;;;;;;2.63;1.43;;;;;;;-2.53;88.07;99901.78;4983458;28;20463;-81
2021/04/06 05:55:21;;;;;;;5.53;1.50;;;;;;;-2.50;87.96;99899.25;4985450;28;20545;-81
2021/04/06 05:57:48;;;;;;;3.33;1.43;;;;;;;-2.42;87.61;99896.84;4981269;28;20466;-80
2021/04/06 06:00:15;;;;;;;3.07;1.53;;;;;;;-2.33;87.74;99886.75;4980020;28;20551;-81
2021/04/06 06:02:41;;;;;;;3.73;1.70;;;;;;;-2.30;87.55;99897.00;4978847;28;20461;-81
2021/04/06 06:05:09;;;;;;;3.43;1.50;;;;;;;-2.25;87.60;99897.94;4978535;28;20656;-81
2021/04/06 06:07:35;;;;;;;2.07;1.50;;;;;;;-2.19;87.19;99900.56;4969243;28;20462;-81
2021/04/06 06:10:30;;;;;;;4.63;1.77;;;;;;;-2.16;87.14;99889.56;4987662;28;20470;-80
2021/04/06 06:13:14;;;;;;;1.47;1.37;;;;;;;-2.04;86.47;99891.41;4982383;28;20493;-80
2021/04/06 06:15:41;;;;;;;2.47;1.63;;;;;;;-1.97;86.90;99888.97;4966703;28;20482;-81
2021/04/06 06:18:07;;;;;;;3.93;1.90;;;;;;;-1.90;86.53;99892.44;4987699;28;20458;-80
2021/04/06 06:20:34;;;;;;;4.87;1.87;;;;;;;-1.80;86.30;99883.19;4985784;28;20881;-81
2021/04/06 06:23:20;;;;;;;2.63;1.90;;;;;;;-1.74;86.23;99894.34;4989392;28;20456;-81
2021/04/06 06:26:15;;;;;;;4.10;1.80;;;;;;;-1.66;85.25;99901.25;4984298;28;20483;-81
2021/04/06 06:29:03;;;;;;;2.87;1.70;;;;;;;-1.56;85.78;99885.19;4944302;28;20467;-81
2021/04/06 06:31:42;;;;;;;2.13;1.53;;;;;;;-1.47;85.33;99900.63;4985804;28;20492;-81
2021/04/06 06:34:30;;;;;;;1.97;1.67;;;;;;;-1.41;85.33;99910.91;4981306;28;20571;-81
2021/04/06 06:37:11;;;;;;;4.90;2.37;;;;;;;-1.34;84.44;99906.72;4980920;28;20584;-80
2021/04/06 06:39:39;;;;;;;4.77;2.03;;;;;;;-1.22;85.12;99903.44;4977032;28;20463;-81
2021/04/06 06:42:09;;;;;;;5.00;2.23;;;;;;;-1.16;84.80;99909.47;4981321;28;20479;-81
2021/04/06 06:44:36;;;;;;;3.30;2.00;;;;;;;-1.07;84.19;99902.72;4983110;28;20914;-81
2021/04/06 06:47:08;;;;;;;2.80;1.97;;;;;;;-0.97;84.49;99900.28;4984286;28;20623;-80
2021/04/06 06:49:36;;;;;;;5.37;2.13;;;;;;;-0.91;83.98;99898.63;4971173;28;20466;-80
2021/04/06 06:52:04;;;;;;;3.93;2.30;;;;;;;-0.85;84.16;99896.09;4979437;28;20487;-81
2021/04/06 06:54:40;;;;;;;3.20;2.50;;;;;;;-0.78;84.03;99895.31;4983825;28;20496;-81
2021/04/06 06:57:09;;;;;;;3.07;2.30;;;;;;;-0.69;83.74;99894.53;4981352;28;20548;-81
2021/04/06 06:59:37;;;;;;;3.53;2.23;;;;;;;-0.63;83.54;99895.44;4983164;28;20204;-81
2021/04/06 07:02:23;;;;;;;3.93;2.63;;;;;;;-0.61;83.38;99892.91;4981431;28;20248;-80
2021/04/06 07:04:50;;;;;;;4.23;2.43;;;;;;;-0.50;82.89;99891.25;4981336;28;20577;-81
2021/04/06 07:07:16;;;;;;;6.33;2.60;;;;;;;-0.48;82.58;99889.56;4980659;28;20198;-81
2021/04/06 07:09:44;;;;;;;4.83;2.40;;;;;;;-0.33;83.24;99886.25;4979311;28;20221;-81
2021/04/06 07:12:14;;;;;;;5.03;2.77;;;;;;;-0.30;82.79;99893.09;4981946;28;20205;-80
2021/04/06 07:14:41;;;;;;;4.37;2.50;;;;;;;-0.12;82.08;99900.03;4988337;28;20225;-81
2021/04/06 07:17:09;;;;;;;5.83;3.00;;;;;;;-0.04;81.42;99895.81;4982474;28;20252;-81
2021/04/06 07:19:38;;;;;;;3.50;2.40;;;;;;;-0.07;81.77;99888.97;4989909;28;20225;-81
2021/04/06 07:22:05;;;;;;;5.97;3.20;;;;;;;-0.02;82.19;99889.00;4970091;28;20217;-80
2021/04/06 07:24:33;;;;;;;7.07;3.20;;;;;;;-0.01;81.59;99883.03;4981446;28;20549;-81
2021/04/06 07:27:04;;;;;;;4.73;2.50;;;;;;;0.14;81.83;99877.97;4980969;28;20205;-81
2021/04/06 07:29:32;;;;;;;3.87;2.93;;;;;;;0.32;80.48;99884.03;4986639;28;20379;-80
2021/04/06 07:31:59;;;;;;;6.27;3.30;;;;;;;0.31;79.93;99890.00;4985847;28;20236;-81
2021/04/06 07:34:26;;;;;;;6.17;3.33;;;;;;;0.35;79.20;99890.03;4982302;28;20218;-80
2021/04/06 07:36:53;;;;;;;6.43;3.20;;;;;;;0.34;79.53;99887.47;4987432;28;20223;-81
2021/04/06 07:39:23;;;;;;;4.00;2.83;;;;;;;0.48;79.06;99877.25;4985680;28;20219;-81
2021/04/06 07:41:49;;;;;;;5.70;2.93;;;;;;;0.64;79.06;99884.13;4997514;28;20355;-79
2021/04/06 07:44:16;;;;;;;5.70;3.40;;;;;;;0.75;78.32;99887.56;4998327;28;20219;-80
2021/04/06 07:46:45;;;;;;;5.80;2.53;;;;;;;0.59;76.73;99897.81;5003505;28;20201;-80
2021/04/06 07:49:32;;;;;;;2.33;2.03;;;;;;;0.61;78.10;99888.38;5000029;28;20197;-79
2021/04/06 07:51:59;;;;;;;4.53;2.90;;;;;;;0.80;76.43;99897.00;4985526;28;20242;-79
2021/04/06 07:54:43;;;;;;;4.03;2.57;;;;;;;1.03;76.41;99894.47;4964597;28;20800;-79
2021/04/06 07:57:09;;;;;;;3.47;2.43;;;;;;;1.24;76.73;99897.03;4977253;28;20201;-80
2021/04/06 08:00:00;;;;;;;4.13;2.73;;;;;;;1.30;75.29;99903.88;4982012;28;20228;-80
2021/04/06 08:02:33;;;;;;;4.50;3.00;;;;;;;1.19;76.12;99903.88;4970872;28;20213;-80
2021/04/06 08:05:10;;;;;;;7.30;2.67;;;;;;;1.18;75.69;99907.31;4985079;28;20229;-81
2021/04/06 08:07:37;;;;;;;4.20;2.57;;;;;;;1.35;75.89;99899.59;4971418;28;20213;-80
2021/04/06 08:10:42;;;;;;;3.63;2.47;;;;;;;1.50;74.81;99899.59;4977013;28;20194;-79
2021/04/06 08:13:12;;;;;;;4.03;2.70;;;;;;;1.66;74.41;99897.88;4979920;28;20668;-80
2021/04/06 08:15:38;;;;;;;4.67;3.30;;;;;;;1.62;73.95;99888.47;4983354;28;20628;-80
2021/04/06 08:18:06;;;;;;;5.07;3.23;;;;;;;1.75;73.34;99893.59;4963126;28;20421;-80
2021/04/06 08:20:38;;;;;;;7.50;2.70;;;;;;;1.85;72.74;99905.56;4982330;28;20239;-80
2021/04/06 08:23:06;;;;;;;2.60;2.23;;;;;;;2.04;73.42;99899.50;4977685;28;20614;-80
2021/04/06 08:25:51;;;;;;;4.40;2.50;;;;;;;2.33;73.40;99897.69;4982616;28;20770;-80
2021/04/06 08:28:38;;;;;;;3.53;2.43;;;;;;;2.33;72.00;99913.97;4969631;28;20208;-80
2021/04/06 08:31:20;;;;;;;5.50;2.43;;;;;;;2.25;71.55;99910.56;4964035;28;20203;-80
2021/04/06 08:33:47;;;;;;;4.73;2.90;;;;;;;2.26;72.08;99909.72;4961008;28;20232;-81
2021/04/06 08:36:25;;;;;;;2.90;2.30;;;;;;;2.05;69.85;99915.78;4976207;28;20601;-81
2021/04/06 08:38:51;;;;;;;3.77;2.37;;;;;;;2.02;69.82;99905.50;4964441;28;20272;-80
2021/04/06 08:41:33;;;;;;;3.90;2.20;;;;;;;2.22;71.17;99897.75;4983315;28;20265;-80
2021/04/06 08:44:02;;;;;;;3.27;2.30;;;;;;;2.61;72.84;99894.13;4980499;28;20738;-80
2021/04/06 08:46:43;;;;;;;5.70;2.43;;;;;;;2.87;70.52;99902.56;4981212;28;20278;-80
2021/04/06 08:49:15;;;;;;;5.33;2.70;;;;;;;2.84;69.58;99899.13;4979772;28;20606;-80
2021/04/06 08:51:43;;;;;;;5.57;2.47;;;;;;;2.71;69.20;99904.38;4980253;28;20217;-80
2021/04/06 08:54:11;;;;;;;18.00;6.90;;;;;;;2.58;66.82;99901.00;4980377;28;20252;-81
2021/04/06 08:56:41;;;;;;;18.03;7.40;;;;;;;2.45;67.10;99905.38;4966543;28;20207;-80
2021/04/06 08:59:11;;;;;;;4.23;2.70;;;;;;;2.39;69.44;99895.97;4983918;28;20202;-79
2021/04/06 09:01:38;;;;;;;4.37;2.20;;;;;;;2.44;66.92;99908.78;4979628;28;20229;-80
2021/04/06 09:04:09;;;;;;;5.00;2.13;;;;;;;2.52;69.44;99898.47;4980081;28;20217;-80
2021/04/06 09:06:36;;;;;;;5.43;2.30;;;;;;;2.75;68.16;99906.91;4979027;28;20197;-80
2021/04/06 09:09:13;;;;;;;8.10;4.40;;;;;;;3.19;66.65;99904.94;4962083;28;20247;-80
2021/04/06 09:11:40;;;;;;;7.60;4.00;;;;;;;3.42;66.88;99904.75;4977595;28;20212;-80
2021/04/06 09:14:07;;;;;;;4.47;1.90;;;;;;;3.37;66.16;99897.03;4967737;28;21026;-81
2021/04/06 09:16:35;;;;;;;9.40;2.97;;;;;;;3.29;67.69;99903.13;4980365;28;20261;-80
2021/04/06 09:19:03;;;;;;;4.10;2.43;;;;;;;3.46;67.01;99901.25;4977977;28;20190;-80
2021/04/06 09:21:30;;;;;;;5.23;2.13;;;;;;;3.66;65.52;99911.41;4967608;28;20217;-80
2021/04/06 09:24:00;;;;;;;6.13;2.10;;;;;;;3.67;64.35;99904.53;4984531;28;20667;-79
2021/04/06 09:26:27;;;;;;;7.37;2.10;;;;;;;3.83;65.35;99898.34;4985666;28;20316;-81
2021/04/06 09:29:10;;;;;;;5.67;2.10;;;;;;;4.09;63.78;99899.81;4986781;28;20213;-80
2021/04/06 09:31:40;;;;;;;6.40;2.40;;;;;;;4.11;64.62;99903.22;4966022;28;20236;-81
2021/04/06 09:34:09;;;;;;;5.73;2.33;;;;;;;3.90;62.63;99899.97;4985216;28;20213;-81
2021/04/06 09:36:36;;;;;;;3.83;1.80;;;;;;;3.65;62.61;99912.28;4985188;28;20213;-81
2021/04/06 09:39:05;;;;;;;2.20;1.33;;;;;;;3.57;63.46;99914.94;4983528;28;20313;-80
2021/04/06 09:41:35;;;;;;;5.60;1.40;;;;;;;3.52;60.60;99913.28;4969294;28;20340;-79
2021/04/06 09:44:02;;;;;;;4.37;1.33;;;;;;;3.50;60.41;99897.81;4984501;28;20304;-81
2021/04/06 09:46:37;;;;;;;3.13;1.50;;;;;;;3.54;64.34;99891.75;4986385;28;20715;-81
2021/04/06 09:49:04;;;;;;;4.40;1.60;;;;;;;3.46;63.06;99895.25;4979146;28;20208;-81
2021/04/06 09:51:31;;;;;;;3.20;1.70;;;;;;;3.46;63.99;99901.25;4986413;28;20233;-81
2021/04/06 09:53:58;;;;;;;2.13;1.63;;;;;;;3.57;63.90;99893.44;4983130;28;20233;-81
2021/04/06 09:56:26;;;;;;;3.27;1.80;;;;;;;3.25;62.34;99894.56;4975206;28;20766;-80
2021/04/06 09:58:53;;;;;;;4.77;1.70;;;;;;;2.98;63.43;99895.63;4985596;28;20241;-80
2021/04/06 10:01:21;;;;;;;5.63;1.60;;;;;;;3.23;61.48;99896.31;4969159;28;20905;-80
2021/04/06 10:03:50;;;;;;;1.83;1.50;;;;;;;3.57;60.85;99891.72;4975090;28;20239;-81
2021/04/06 10:06:16;;;;;;;3.17;1.50;;;;;;;3.98;61.57;99876.72;4969414;28;20205;-80
2021/04/06 10:08:42;;;;;;;3.33;1.33;;;;;;;4.34;61.62;99887.44;4987505;28;20259;-79
2021/04/06 10:11:10;;;;;;;3.70;1.20;;;;;;;4.16;58.64;99904.88;4964106;28;20572;-81
2021/04/06 10:13:38;;;;;;;1.63;1.20;;;;;;;4.20;57.04;99897.09;4966218;28;20232;-81
2021/04/06 10:16:07;;;;;;;1.77;1.50;;;;;;;4.41;57.78;99896.81;4982672;28;20209;-81
2021/04/06 10:18:43;;;;;;;5.63;1.50;;;;;;;4.34;58.10;99890.91;4981433;28;21321;-81
2021/04/06 10:21:22;;;;;;;1.60;1.00;;;;;;;4.43;58.23;99886.50;4961351;28;20283;-80
2021/04/06 10:23:49;;;;;;;1.37;1.00;;;;;;;4.54;57.45;99885.47;4967181;28;20450;-81
2021/04/06 10:26:24;;;;;;;2.03;1.13;;;;;;;4.57;58.82;99882.00;4983706;28;20226;-81
2021/04/06 10:29:04;;;;;;;4.13;1.23;;;;;;;4.43;58.28;99887.34;4986105;28;20202;-81
2021/04/06 10:31:44;;;;;;;1.27;0.87;;;;;;;4.29;58.92;99884.06;4985297;28;20574;-80
2021/04/06 10:34:10;;;;;;;3.80;1.60;;;;;;;4.27;57.97;99876.34;4983576;28;20237;-81
2021/04/06 10:36:36;;;;;;;4.10;1.37;;;;;;;4.39;59.05;99880.50;4980297;28;20204;-81
2021/04/06 10:39:05;;;;;;;3.17;1.30;;;;;;;4.49;59.02;99878.69;4985946;28;20281;-81
2021/04/06 10:42:02;;;;;;;3.33;1.43;;;;;;;4.23;59.43;99877.25;4985370;28;20721;-79
2021/04/06 10:44:30;;;;;;;3.20;1.20;;;;;;;3.90;61.08;99874.19;4967423;28;20615;-80
2021/04/06 10:46:57;;;;;;;2.23;1.20;;;;;;;3.90;60.79;99874.19;4985732;28;20197;-81
2021/04/06 10:49:24;;;;;;;3.67;1.30;;;;;;;3.93;61.53;99868.16;4983981;28;20210;-80
2021/04/06 10:51:52;;;;;;;1.90;1.40;;;;;;;3.76;60.43;99870.91;4986459;28;20193;-80
2021/04/06 10:54:19;;;;;;;2.07;1.30;;;;;;;3.98;60.73;99872.41;4961893;28;20228;-81
2021/04/06 10:56:47;;;;;;;2.53;1.13;;;;;;;4.08;56.99;99872.28;4984354;28;20202;-81
2021/04/06 10:59:14;;;;;;;5.23;1.40;;;;;;;4.51;60.24;99858.84;4985465;28;20197;-81
2021/04/06 11:01:43;;;;;;;4.03;1.40;;;;;;;4.88;61.44;99853.16;4979709;28;20222;-80
2021/04/06 11:04:11;;;;;;;3.20;1.63;;;;;;;5.11;59.68;99847.63;4983580;28;20228;-82
2021/04/06 11:06:39;;;;;;;4.70;1.20;;;;;;;5.07;56.67;99856.31;4985686;28;20217;-82
2021/04/06 11:09:12;;;;;;;5.20;1.27;;;;;;;5.06;56.67;99864.94;4987622;28;20205;-81
2021/04/06 11:11:38;;;;;;;3.53;1.53;;;;;;;4.77;55.39;99862.78;4982650;28;20197;-81
2021/04/06 11:14:06;;;;;;;2.77;1.50;;;;;;;4.70;56.53;99854.28;4975520;28;20229;-81
2021/04/06 11:16:33;;;;;;;5.10;1.40;;;;;;;4.58;55.47;99868.22;4988720;28;20211;-81
2021/04/06 11:19:08;;;;;;;3.23;1.70;;;;;;;4.59;56.79;99858.75;4989058;28;20228;-82
2021/04/06 11:21:36;;;;;;;4.23;1.97;;;;;;;4.54;57.56;99857.09;4987921;28;20229;-81
2021/04/06 11:24:03;;;;;;;5.13;2.10;;;;;;;4.63;57.03;99847.50;4987074;28;20297;-81
2021/04/06 11:26:29;;;;;;;12.73;6.37;;;;;;;4.50;56.04;99863.19;4990765;28;20202;-82
2021/04/06 11:28:55;;;;;;;4.23;2.10;;;;;;;4.27;59.84;99852.28;4983835;28;20223;-82
2021/04/06 11:31:21;;;;;;;2.53;1.43;;;;;;;3.63;63.59;99869.34;4989086;28;20592;-82
2021/04/06 11:33:47;;;;;;;3.60;1.93;;;;;;;3.32;68.09;99855.00;4972048;28;20221;-82
2021/04/06 11:36:14;;;;;;;3.23;2.00;;;;;;;3.14;70.38;99856.00;4986273;28;20214;-81
2021/04/06 11:38:41;;;;;;;3.83;1.97;;;;;;;3.28;71.18;99847.31;4985644;28;20276;-81
2021/04/06 11:41:08;;;;;;;4.87;2.03;;;;;;;3.59;74.72;99833.28;4988915;28;20752;-81
2021/04/06 11:43:34;;;;;;;3.37;2.20;;;;;;;3.76;73.33;99830.53;4989551;28;20261;-82
2021/04/06 11:46:01;;;;;;;6.53;2.40;;;;;;;4.02;73.00;99829.34;4967537;28;21227;-82
2021/04/06 11:48:27;;;;;;;4.40;2.00;;;;;;;4.25;71.45;99817.91;4985061;28;20197;-81